createdAt,value
2018-08-18T00:00:19.142Z,17.30
2018-08-18T00:02:47.450Z,17.40
2018-08-18T00:05:16.636Z,17.50
2018-08-18T00:07:44.886Z,17.60
2018-08-18T00:10:17.151Z,17.60
2018-08-18T00:12:45.443Z,17.60
2018-08-18T00:15:13.724Z,17.70
2018-08-18T00:17:41.986Z,17.70
2018-08-18T00:20:12.852Z,17.70
2018-08-18T00:22:41.125Z,17.70
2018-08-18T00:25:09.419Z,17.70
2018-08-18T00:27:37.680Z,17.70
2018-08-18T00:30:13.143Z,17.70
2018-08-18T00:32:41.437Z,17.70
2018-08-18T00:35:09.744Z,17.70
2018-08-18T00:37:38.048Z,17.70
2018-08-18T00:40:07.684Z,17.70
2018-08-18T00:42:35.952Z,17.70
2018-08-18T00:45:04.818Z,17.70
2018-08-18T00:47:33.116Z,17.70
2018-08-18T00:50:01.444Z,17.70
2018-08-18T00:52:29.726Z,17.70
2018-08-18T00:54:57.992Z,17.70
2018-08-18T00:57:28.895Z,17.80
2018-08-18T00:59:57.433Z,17.80
2018-08-18T01:02:26.234Z,17.70
2018-08-18T01:04:56.664Z,17.80
2018-08-18T01:07:26.089Z,17.70
2018-08-18T01:09:54.420Z,17.70
2018-08-18T01:12:23.574Z,17.70
2018-08-18T01:14:51.911Z,17.60
2018-08-18T01:17:20.145Z,17.50
2018-08-18T01:19:48.428Z,17.40
2018-08-18T01:22:16.687Z,17.30
2018-08-18T01:24:44.971Z,17.20
2018-08-18T01:27:13.400Z,17.20
2018-08-18T01:29:42.547Z,17.10
2018-08-18T01:32:10.819Z,17.00
2018-08-18T01:34:39.088Z,16.90
2018-08-18T01:37:12.766Z,16.80
2018-08-18T01:39:41.031Z,16.80
2018-08-18T01:42:09.285Z,16.70
2018-08-18T01:44:37.673Z,16.60
2018-08-18T01:47:08.897Z,16.60
2018-08-18T01:49:37.933Z,16.50
2018-08-18T01:52:12.973Z,16.50
2018-08-18T01:54:41.661Z,16.50
2018-08-18T01:57:11.585Z,16.40
2018-08-18T01:59:41.205Z,16.30
2018-08-18T02:02:26.935Z,16.30
2018-08-18T02:05:01.010Z,16.20
2018-08-18T02:07:31.608Z,16.20
2018-08-18T02:09:59.931Z,16.10
2018-08-18T02:12:28.673Z,16.00
2018-08-18T02:14:57.311Z,16.00
2018-08-18T02:17:29.353Z,16.00
2018-08-18T02:19:57.905Z,15.90
2018-08-18T02:22:26.735Z,15.90
2018-08-18T02:24:55.017Z,15.80
2018-08-18T02:27:23.299Z,15.80
2018-08-18T02:30:03.744Z,15.80
2018-08-18T02:32:34.839Z,15.80
2018-08-18T02:35:03.166Z,15.80
2018-08-18T02:37:31.667Z,15.70
2018-08-18T02:39:59.975Z,15.70
2018-08-18T02:42:28.246Z,15.70
2018-08-18T02:44:56.520Z,15.60
2018-08-18T02:47:25.002Z,15.60
2018-08-18T02:49:54.309Z,15.60
2018-08-18T02:52:23.599Z,15.50
2018-08-18T02:54:59.565Z,15.50
2018-08-18T02:57:35.006Z,15.40
2018-08-18T03:00:06.579Z,15.40
2018-08-18T03:02:34.888Z,15.40
2018-08-18T03:05:03.212Z,15.40
2018-08-18T03:07:33.848Z,15.30
2018-08-18T03:10:08.734Z,15.30
2018-08-18T03:12:43.102Z,15.30
2018-08-18T03:15:13.815Z,15.20
2018-08-18T03:17:42.106Z,15.20
2018-08-18T03:20:10.363Z,15.10
2018-08-18T03:22:40.596Z,15.10
2018-08-18T03:25:09.136Z,15.10
2018-08-18T03:27:37.421Z,15.00
2018-08-18T03:30:05.796Z,15.00
2018-08-18T03:32:34.096Z,15.00
2018-08-18T03:35:02.379Z,15.00
2018-08-18T03:37:31.491Z,14.90
2018-08-18T03:39:59.775Z,14.90
2018-08-18T03:42:33.363Z,14.90
2018-08-18T03:45:01.704Z,14.80
2018-08-18T03:47:29.983Z,14.80
2018-08-18T03:49:58.261Z,14.80
2018-08-18T03:52:26.561Z,14.80
2018-08-18T03:54:54.819Z,14.70
2018-08-18T03:57:23.165Z,14.70
2018-08-18T03:59:51.431Z,14.70
2018-08-18T04:02:19.700Z,14.70
2018-08-18T04:04:49.783Z,14.60
2018-08-18T04:07:18.036Z,14.60
2018-08-18T04:09:46.454Z,14.60
2018-08-18T04:12:14.723Z,14.60
2018-08-18T04:14:44.213Z,14.50
2018-08-18T04:17:24.560Z,14.50
2018-08-18T04:19:52.821Z,14.50
2018-08-18T04:22:22.687Z,14.40
2018-08-18T04:24:50.980Z,14.40
2018-08-18T04:27:50.191Z,14.40
2018-08-18T04:30:20.563Z,14.40
2018-08-18T04:32:58.456Z,14.30
2018-08-18T04:35:27.909Z,14.30
2018-08-18T04:37:57.077Z,14.30
2018-08-18T04:40:25.773Z,14.30
2018-08-18T04:42:56.133Z,14.30
2018-08-18T04:45:24.483Z,14.40
2018-08-18T04:47:52.726Z,14.30
2018-08-18T04:50:22.160Z,14.40
2018-08-18T04:52:53.019Z,14.40
2018-08-18T04:55:21.375Z,14.40
2018-08-18T04:57:49.742Z,14.40
2018-08-18T05:00:18.058Z,14.40
2018-08-18T05:02:51.720Z,14.40
2018-08-18T05:05:22.650Z,14.40
2018-08-18T05:07:51.020Z,14.40
2018-08-18T05:10:23.948Z,14.50
2018-08-18T05:12:52.289Z,14.50
2018-08-18T05:15:20.578Z,14.50
2018-08-18T05:17:50.172Z,14.60
2018-08-18T05:20:19.884Z,14.60
2018-08-18T05:22:48.164Z,14.60
2018-08-18T05:25:17.331Z,14.60
2018-08-18T05:27:45.652Z,14.60
2018-08-18T05:30:13.966Z,14.70
2018-08-18T05:32:42.261Z,14.70
2018-08-18T05:35:10.572Z,14.70
2018-08-18T05:37:38.850Z,14.80
2018-08-18T05:40:07.574Z,14.80
2018-08-18T05:42:35.860Z,14.90
2018-08-18T05:45:19.612Z,14.90
2018-08-18T05:47:47.913Z,15.00
2018-08-18T05:50:16.219Z,15.10
2018-08-18T05:52:44.493Z,15.10
2018-08-18T05:55:12.753Z,15.20
2018-08-18T05:57:41.041Z,15.20
2018-08-18T06:00:14.620Z,15.30
2018-08-18T06:02:47.134Z,15.40
2018-08-18T06:05:15.448Z,15.40
2018-08-18T06:07:43.781Z,15.50
2018-08-18T06:10:12.071Z,15.50
2018-08-18T06:12:40.373Z,15.60
2018-08-18T06:15:08.682Z,15.60
2018-08-18T06:17:36.994Z,15.70
2018-08-18T06:20:06.891Z,15.80
2018-08-18T06:22:35.517Z,15.80
2018-08-18T06:25:03.866Z,15.90
2018-08-18T06:27:32.233Z,16.00
2018-08-18T06:30:00.524Z,16.00
2018-08-18T06:32:28.822Z,16.00
2018-08-18T06:34:57.171Z,16.10
2018-08-18T06:37:25.400Z,16.20
2018-08-18T06:39:55.827Z,16.30
2018-08-18T06:42:41.814Z,16.30
2018-08-18T06:45:14.184Z,16.50
2018-08-18T06:47:43.089Z,16.60
2018-08-18T06:50:13.276Z,16.60
2018-08-18T06:52:41.888Z,16.70
2018-08-18T06:55:14.207Z,16.80
2018-08-18T06:57:50.528Z,16.80
2018-08-18T07:00:21.927Z,16.90
2018-08-18T07:02:50.228Z,17.00
2018-08-18T07:05:19.568Z,17.20
2018-08-18T07:07:48.811Z,17.30
2018-08-18T07:10:27.031Z,17.50
2018-08-18T07:12:57.429Z,17.70
2018-08-18T07:15:27.733Z,17.80
2018-08-18T07:17:56.051Z,17.90
2018-08-18T07:20:24.401Z,18.10
2018-08-18T07:22:53.405Z,18.20
2018-08-18T07:25:21.724Z,18.30
2018-08-18T07:27:55.255Z,18.30
2018-08-18T07:30:23.797Z,18.50
2018-08-18T07:32:52.087Z,18.60
2018-08-18T07:35:20.514Z,18.70
2018-08-18T07:37:48.849Z,18.80
2018-08-18T07:40:17.229Z,18.90
2018-08-18T07:42:54.787Z,19.00
2018-08-18T07:45:23.095Z,19.10
2018-08-18T07:47:51.383Z,19.20
2018-08-18T07:50:19.682Z,19.40
2018-08-18T07:52:47.971Z,19.40
2018-08-18T07:55:16.235Z,19.50
2018-08-18T07:57:48.896Z,19.60
2018-08-18T08:00:17.205Z,19.70
2018-08-18T08:02:45.632Z,19.80
2018-08-18T08:05:13.939Z,19.80
2018-08-18T08:07:42.679Z,19.90
2018-08-18T08:10:10.963Z,20.00
2018-08-18T08:12:39.338Z,20.00
2018-08-18T08:15:07.563Z,20.10
2018-08-18T08:17:35.868Z,20.00
2018-08-18T08:20:04.942Z,20.10
2018-08-18T08:22:33.221Z,20.10
2018-08-18T08:25:01.554Z,20.20
2018-08-18T08:27:29.837Z,20.30
2018-08-18T08:29:58.127Z,20.30
2018-08-18T08:32:26.394Z,20.40
2018-08-18T08:34:54.677Z,20.50
2018-08-18T08:37:22.972Z,20.60
2018-08-18T08:39:51.271Z,20.80
2018-08-18T08:42:19.607Z,20.90
2018-08-18T08:44:48.921Z,21.00
2018-08-18T08:47:17.315Z,21.10
2018-08-18T08:49:45.611Z,21.10
2018-08-18T08:52:13.884Z,21.20
2018-08-18T08:54:42.143Z,21.30
2018-08-18T08:57:11.533Z,21.40
2018-08-18T08:59:40.823Z,21.50
2018-08-18T09:02:12.382Z,21.60
2018-08-18T09:04:40.700Z,21.70
2018-08-18T09:07:10.664Z,21.80
2018-08-18T09:09:38.975Z,21.90
2018-08-18T09:12:07.603Z,22.00
2018-08-18T09:14:35.883Z,22.10
2018-08-18T09:17:04.232Z,22.20
2018-08-18T09:19:32.526Z,22.30
2018-08-18T09:22:02.592Z,22.30
2018-08-18T09:24:31.691Z,22.40
2018-08-18T09:27:01.409Z,22.50
2018-08-18T09:29:35.138Z,22.40
2018-08-18T09:32:03.435Z,22.20
2018-08-18T09:34:35.480Z,22.20
2018-08-18T09:37:04.584Z,22.10
2018-08-18T09:39:34.378Z,22.20
2018-08-18T09:42:04.347Z,22.10
2018-08-18T09:44:35.062Z,22.20
2018-08-18T09:47:03.410Z,22.30
2018-08-18T09:49:32.142Z,22.40
2018-08-18T09:52:01.100Z,22.40
2018-08-18T09:54:29.650Z,22.40
2018-08-18T09:56:58.595Z,22.50
2018-08-18T09:59:27.600Z,22.40
2018-08-18T10:01:56.012Z,22.40
2018-08-18T10:04:24.402Z,22.40
2018-08-18T10:06:53.676Z,22.60
2018-08-18T10:09:22.091Z,22.50
2018-08-18T10:11:50.461Z,22.50
2018-08-18T10:14:18.752Z,22.70
2018-08-18T10:16:47.046Z,22.80
2018-08-18T10:19:15.336Z,22.90
2018-08-18T10:21:43.768Z,23.00
2018-08-18T10:24:12.090Z,23.10
2018-08-18T10:26:40.727Z,23.10
2018-08-18T10:29:18.060Z,23.10
2018-08-18T10:31:50.204Z,23.10
2018-08-18T10:34:19.535Z,23.20
2018-08-18T10:36:50.911Z,23.30
2018-08-18T10:39:19.672Z,23.30
2018-08-18T10:41:59.240Z,23.40
2018-08-18T10:44:27.496Z,23.30
2018-08-18T10:47:07.916Z,23.20
2018-08-18T10:49:47.554Z,23.20
2018-08-18T10:52:28.116Z,23.30
2018-08-18T10:54:56.853Z,23.40
2018-08-18T10:57:36.571Z,23.40
2018-08-18T11:00:11.512Z,23.40
2018-08-18T11:02:42.353Z,23.50
2018-08-18T11:05:10.857Z,23.60
2018-08-18T11:07:39.151Z,23.70
2018-08-18T11:10:08.106Z,23.70
2018-08-18T11:12:38.547Z,23.80
2018-08-18T11:15:10.982Z,23.70
2018-08-18T11:17:39.452Z,23.70
2018-08-18T11:20:13.290Z,23.60
2018-08-18T11:22:54.034Z,23.60
2018-08-18T11:25:27.412Z,23.60
2018-08-18T11:27:56.520Z,23.50
2018-08-18T11:30:25.076Z,23.50
2018-08-18T11:32:54.584Z,23.50
2018-08-18T11:35:22.984Z,23.60
2018-08-18T11:38:02.716Z,23.70
2018-08-18T11:40:31.020Z,23.70
2018-08-18T11:43:01.416Z,23.50
2018-08-18T11:45:30.836Z,23.50
2018-08-18T11:48:11.243Z,23.60
2018-08-18T11:50:39.874Z,23.60
2018-08-18T11:53:08.190Z,23.60
2018-08-18T11:55:36.891Z,23.50
2018-08-18T11:58:11.892Z,23.50
2018-08-18T12:00:43.904Z,23.60
2018-08-18T12:03:13.377Z,23.70
2018-08-18T12:05:46.582Z,23.80
2018-08-18T12:08:15.818Z,23.90
2018-08-18T12:10:44.135Z,23.90
2018-08-18T12:13:12.453Z,24.00
2018-08-18T12:16:02.476Z,24.10
2018-08-18T12:18:31.837Z,24.20
2018-08-18T12:21:01.220Z,24.30
2018-08-18T12:23:30.176Z,24.50
2018-08-18T12:26:07.156Z,24.30
2018-08-18T12:28:42.642Z,24.30
2018-08-18T12:31:13.080Z,24.20
2018-08-18T12:33:41.425Z,24.30
2018-08-18T12:36:09.833Z,24.20
2018-08-18T12:38:41.120Z,24.20
2018-08-18T12:41:12.307Z,24.20
2018-08-18T12:43:44.824Z,24.20
2018-08-18T12:46:14.446Z,24.30
2018-08-18T12:48:43.962Z,24.30
2018-08-18T12:51:13.352Z,24.30
2018-08-18T12:53:46.964Z,24.30
2018-08-18T12:56:17.034Z,24.30
2018-08-18T12:58:45.473Z,24.20
2018-08-18T13:01:15.156Z,24.30
2018-08-18T13:03:43.427Z,24.30
2018-08-18T13:06:11.708Z,24.30
2018-08-18T13:08:40.049Z,24.30
2018-08-18T13:11:08.364Z,24.30
2018-08-18T13:13:36.645Z,24.30
2018-08-18T13:16:04.952Z,24.30
2018-08-18T13:18:33.775Z,24.20
2018-08-18T13:21:01.997Z,24.20
2018-08-18T13:23:30.285Z,24.30
2018-08-18T13:25:58.629Z,24.40
2018-08-18T13:28:26.929Z,24.40
2018-08-18T13:30:55.208Z,24.20
2018-08-18T13:33:24.068Z,24.10
2018-08-18T13:35:52.341Z,24.10
2018-08-18T13:38:29.764Z,24.00
2018-08-18T13:40:58.107Z,24.00
2018-08-18T13:43:40.056Z,24.20
2018-08-18T13:46:10.100Z,24.30
2018-08-18T13:48:38.450Z,24.30
2018-08-18T13:51:07.881Z,24.30
2018-08-18T13:53:43.429Z,24.30
2018-08-18T13:56:11.733Z,24.30
2018-08-18T13:58:40.050Z,24.30
2018-08-18T14:01:23.767Z,24.40
2018-08-18T14:03:52.289Z,24.30
2018-08-18T14:06:20.564Z,24.30
2018-08-18T14:08:53.071Z,24.30
2018-08-18T14:11:21.381Z,24.30
2018-08-18T14:13:49.673Z,24.30
2018-08-18T14:16:17.965Z,24.30
2018-08-18T14:18:46.274Z,24.30
2018-08-18T14:21:14.607Z,24.40
2018-08-18T14:23:42.901Z,24.40
2018-08-18T14:26:11.225Z,24.60
2018-08-18T14:28:39.526Z,24.70
2018-08-18T14:31:07.815Z,24.70
2018-08-18T14:33:36.119Z,24.80
2018-08-18T14:36:10.519Z,24.80
2018-08-18T14:38:38.900Z,24.70
2018-08-18T14:41:07.395Z,24.70
2018-08-18T14:43:38.863Z,24.80
2018-08-18T14:46:11.582Z,24.70
2018-08-18T14:48:39.891Z,24.70
2018-08-18T14:51:08.579Z,24.70
2018-08-18T14:53:40.720Z,24.80
2018-08-18T14:56:09.004Z,24.80
2018-08-18T14:58:37.406Z,24.90
2018-08-18T15:01:10.145Z,24.90
2018-08-18T15:03:38.709Z,25.00
2018-08-18T15:06:06.999Z,25.00
2018-08-18T15:08:35.369Z,25.00
2018-08-18T15:11:03.659Z,25.00
2018-08-18T15:13:31.958Z,25.00
2018-08-18T15:16:00.259Z,25.00
2018-08-18T15:18:28.597Z,24.90
2018-08-18T15:20:56.966Z,24.90
2018-08-18T15:23:25.208Z,24.80
2018-08-18T15:25:53.503Z,24.90
2018-08-18T15:28:21.958Z,24.90
2018-08-18T15:30:51.685Z,24.90
2018-08-18T15:33:21.588Z,24.80
2018-08-18T15:35:49.924Z,24.90
2018-08-18T15:38:18.305Z,24.90
2018-08-18T15:40:46.600Z,24.80
2018-08-18T15:43:14.896Z,24.80
2018-08-18T15:45:57.713Z,24.90
2018-08-18T15:48:26.167Z,25.00
2018-08-18T15:50:54.504Z,24.90
2018-08-18T15:53:36.903Z,25.00
2018-08-18T15:56:05.171Z,24.90
2018-08-18T15:58:33.510Z,25.00
2018-08-18T16:01:01.872Z,24.90
2018-08-18T16:03:30.070Z,24.90
2018-08-18T16:05:58.354Z,24.90
2018-08-18T16:08:26.677Z,24.80
2018-08-18T16:10:54.951Z,24.90
2018-08-18T16:13:23.257Z,25.00
2018-08-18T16:15:51.561Z,24.90
2018-08-18T16:18:19.850Z,24.80
2018-08-18T16:20:48.218Z,24.70
2018-08-18T16:23:21.846Z,24.60
2018-08-18T16:25:50.159Z,24.60
2018-08-18T16:28:20.756Z,24.60
2018-08-18T16:30:49.125Z,24.60
2018-08-18T16:33:20.258Z,24.60
2018-08-18T16:35:48.595Z,24.50
2018-08-18T16:38:16.932Z,24.50
2018-08-18T16:40:45.210Z,24.50
2018-08-18T16:43:14.605Z,24.50
2018-08-18T16:45:42.886Z,24.50
2018-08-18T16:48:12.402Z,24.50
2018-08-18T16:50:41.417Z,24.40
2018-08-18T16:53:11.030Z,24.40
2018-08-18T16:55:40.731Z,24.40
2018-08-18T16:58:09.085Z,24.40
2018-08-18T17:00:54.188Z,24.50
2018-08-18T17:03:27.686Z,24.50
2018-08-18T17:05:55.971Z,24.50
2018-08-18T17:08:24.263Z,24.50
2018-08-18T17:10:52.559Z,24.60
2018-08-18T17:13:21.127Z,24.60
2018-08-18T17:15:50.015Z,24.60
2018-08-18T17:18:18.305Z,24.70
2018-08-18T17:20:51.323Z,24.70
2018-08-18T17:23:19.603Z,24.80
2018-08-18T17:25:47.893Z,24.90
2018-08-18T17:28:16.167Z,25.00
2018-08-18T17:30:44.971Z,25.00
2018-08-18T17:33:13.273Z,25.10
2018-08-18T17:35:41.553Z,25.20
2018-08-18T17:38:09.869Z,25.20
2018-08-18T17:40:38.255Z,25.30
2018-08-18T17:43:06.593Z,25.30
2018-08-18T17:45:39.617Z,25.30
2018-08-18T17:48:07.927Z,25.40
2018-08-18T17:50:37.159Z,25.40
2018-08-18T17:53:06.477Z,25.40
2018-08-18T17:55:34.746Z,25.40
2018-08-18T17:58:03.071Z,25.30
2018-08-18T18:00:31.458Z,25.20
2018-08-18T18:03:00.801Z,25.10
2018-08-18T18:05:31.951Z,24.90
2018-08-18T18:08:02.826Z,24.70
2018-08-18T18:10:32.433Z,24.60
2018-08-18T18:13:00.801Z,24.40
2018-08-18T18:15:35.972Z,24.20
2018-08-18T18:18:04.553Z,24.00
2018-08-18T18:20:33.810Z,23.90
2018-08-18T18:23:02.127Z,23.80
2018-08-18T18:25:30.434Z,23.70
2018-08-18T18:28:00.496Z,23.60
2018-08-18T18:30:29.405Z,23.40
2018-08-18T18:32:57.979Z,23.30
2018-08-18T18:35:26.783Z,23.20
2018-08-18T18:37:58.337Z,23.10
2018-08-18T18:40:26.711Z,22.90
2018-08-18T18:42:54.967Z,22.80
2018-08-18T18:45:24.295Z,22.70
2018-08-18T18:47:52.575Z,22.50
2018-08-18T18:50:20.927Z,22.30
2018-08-18T18:52:49.247Z,22.20
2018-08-18T18:55:17.846Z,22.00
2018-08-18T18:58:01.694Z,21.90
2018-08-18T19:00:30.924Z,21.80
2018-08-18T19:02:59.223Z,21.70
2018-08-18T19:05:28.972Z,21.60
2018-08-18T19:08:01.722Z,21.60
2018-08-18T19:10:30.041Z,21.60
2018-08-18T19:12:59.401Z,21.50
2018-08-18T19:15:28.460Z,21.50
2018-08-18T19:17:56.729Z,21.40
2018-08-18T19:20:26.882Z,21.40
2018-08-18T19:23:02.472Z,21.30
2018-08-18T19:25:31.223Z,21.20
2018-08-18T19:27:59.544Z,21.10
2018-08-18T19:30:27.815Z,21.10
2018-08-18T19:32:56.156Z,21.10
2018-08-18T19:35:29.704Z,21.00
2018-08-18T19:37:58.039Z,21.00
2018-08-18T19:40:26.678Z,21.00
2018-08-18T19:42:54.944Z,21.00
2018-08-18T19:45:23.273Z,20.90
2018-08-18T19:47:51.548Z,20.90
2018-08-18T19:50:19.862Z,20.80
2018-08-18T19:52:55.516Z,20.80
2018-08-18T19:55:23.769Z,20.70
2018-08-18T19:57:52.128Z,20.70
2018-08-18T20:00:20.460Z,20.70
2018-08-18T20:03:02.986Z,20.60
2018-08-18T20:05:31.293Z,20.50
2018-08-18T20:07:59.597Z,20.40
2018-08-18T20:10:27.907Z,20.40
2018-08-18T20:12:56.294Z,20.20
2018-08-18T20:15:24.636Z,20.20
2018-08-18T20:17:52.966Z,20.10
2018-08-18T20:20:23.010Z,20.00
2018-08-18T20:22:51.384Z,19.90
2018-08-18T20:25:26.090Z,19.90
2018-08-18T20:27:54.379Z,19.80
2018-08-18T20:30:22.670Z,19.70
2018-08-18T20:32:50.936Z,19.60
2018-08-18T20:35:19.230Z,19.50
2018-08-18T20:37:47.544Z,19.50
2018-08-18T20:40:15.860Z,19.40
2018-08-18T20:42:44.808Z,19.40
2018-08-18T20:45:13.722Z,19.30
2018-08-18T20:47:43.718Z,19.40
2018-08-18T20:50:12.508Z,19.30
2018-08-18T20:52:41.195Z,19.30
2018-08-18T20:55:09.748Z,19.30
2018-08-18T20:57:38.016Z,19.30
2018-08-18T21:00:08.036Z,19.20
2018-08-18T21:02:36.334Z,19.20
2018-08-18T21:05:05.656Z,19.20
2018-08-18T21:07:34.898Z,19.10
2018-08-18T21:10:06.999Z,19.10
2018-08-18T21:12:40.590Z,19.10
2018-08-18T21:15:08.892Z,19.10
2018-08-18T21:17:37.200Z,19.10
2018-08-18T21:20:07.908Z,19.00
2018-08-18T21:22:36.498Z,19.00
2018-08-18T21:25:05.589Z,19.00
2018-08-18T21:27:33.877Z,19.00
2018-08-18T21:30:02.156Z,18.90
2018-08-18T21:32:30.427Z,18.90
2018-08-18T21:34:58.710Z,18.80
2018-08-18T21:37:26.982Z,18.80
2018-08-18T21:39:55.264Z,18.80
2018-08-18T21:42:23.525Z,18.80
2018-08-18T21:44:54.053Z,18.80
2018-08-18T21:47:22.363Z,18.70
2018-08-18T21:49:50.638Z,18.70
2018-08-18T21:52:18.925Z,18.60
2018-08-18T21:54:47.231Z,18.50
2018-08-18T21:57:15.467Z,18.50
2018-08-18T21:59:54.485Z,18.40
2018-08-18T22:02:36.125Z,18.30
2018-08-18T22:05:04.874Z,18.20
2018-08-18T22:07:53.575Z,18.20
2018-08-18T22:10:21.857Z,18.10
2018-08-18T22:12:50.136Z,18.00
2018-08-18T22:15:20.233Z,18.00
2018-08-18T22:17:49.730Z,18.00
2018-08-18T22:20:19.593Z,18.00
2018-08-18T22:22:47.982Z,18.00
2018-08-18T22:25:16.202Z,17.90
2018-08-18T22:27:44.580Z,17.90
2018-08-18T22:30:14.635Z,17.80
2018-08-18T22:32:44.130Z,17.80
2018-08-18T22:35:13.114Z,17.80
2018-08-18T22:37:41.731Z,17.80
2018-08-18T22:40:11.001Z,17.80
2018-08-18T22:42:39.499Z,17.80
2018-08-18T22:45:20.359Z,17.80
2018-08-18T22:47:48.679Z,17.80
2018-08-18T22:50:16.965Z,17.80
2018-08-18T22:52:49.442Z,17.70
2018-08-18T22:55:18.025Z,17.70
2018-08-18T22:57:53.439Z,17.70
2018-08-18T23:00:22.435Z,17.60
2018-08-18T23:02:51.039Z,17.60
2018-08-18T23:05:20.137Z,17.50
2018-08-18T23:07:50.147Z,17.50
2018-08-18T23:10:18.429Z,17.40
2018-08-18T23:12:46.835Z,17.40
2018-08-18T23:15:15.121Z,17.40
2018-08-18T23:17:43.394Z,17.30
2018-08-18T23:20:11.733Z,17.30
2018-08-18T23:22:55.214Z,17.30
2018-08-18T23:25:25.018Z,17.30
2018-08-18T23:27:53.813Z,17.30
2018-08-18T23:30:25.745Z,17.30
2018-08-18T23:32:54.029Z,17.30
2018-08-18T23:35:24.395Z,17.30
2018-08-18T23:37:53.107Z,17.30
2018-08-18T23:40:21.441Z,17.20
2018-08-18T23:42:49.707Z,17.20
2018-08-18T23:45:18.015Z,17.20
2018-08-18T23:47:54.257Z,17.10
2018-08-18T23:50:22.549Z,17.10
2018-08-18T23:52:59.221Z,17.10
2018-08-18T23:55:28.764Z,17.10
2018-08-18T23:57:57.171Z,17.00
